Time;durP1;ratioP1;P1;durP2;ratioP2;P2;SDS_P1;SDS_P2;PMS_P1;PMS_P2;Temp;Humidity;BMP_temperature;BMP_pressure;BME280_temperature;BME280_humidity;BME280_pressure;Samples;Min_cycle;Max_cycle;Signal;HPM_P1;HPM_P2
2023/01/13 00:01:14;;;;;;;15.65;1.60;;;10.10;99.90;;;;;;5060945;28;20036;-74
2023/01/13 00:03:40;;;;;;;16.80;1.55;;;10.00;99.90;;;;;;5055971;28;20040;-74
2023/01/13 00:06:07;;;;;;;12.02;1.52;;;9.90;99.90;;;;;;5065237;28;20025;-74
2023/01/13 00:08:33;;;;;;;19.38;2.47;;;9.80;99.90;;;;;;5060969;28;20036;-73
2023/01/13 00:10:58;;;;;;;18.90;1.40;;;9.80;99.90;;;;;;5062232;28;20464;-74
2023/01/13 00:13:27;;;;;;;12.80;1.08;;;9.70;99.90;;;;;;5061470;28;20400;-74
2023/01/13 00:16:00;;;;;;;17.23;1.42;;;9.70;99.90;;;;;;5067542;28;20545;-74
2023/01/13 00:18:25;;;;;;;17.58;1.67;;;9.60;99.90;;;;;;5080579;28;20043;-74
2023/01/13 00:21:22;;;;;;;14.40;1.42;;;9.50;99.90;;;;;;5072218;28;20738;-73
2023/01/13 00:23:48;;;;;;;18.48;1.33;;;9.40;99.90;;;;;;5065712;28;20114;-73
2023/01/13 00:26:17;;;;;;;12.57;2.53;;;9.40;99.90;;;;;;5066389;28;20035;-73
2023/01/13 00:28:43;;;;;;;16.63;1.45;;;9.30;99.90;;;;;;5055782;28;20025;-74
2023/01/13 00:31:12;;;;;;;23.48;2.05;;;9.30;99.90;;;;;;5060052;28;20035;-73
2023/01/13 00:33:38;;;;;;;19.65;3.05;;;9.20;99.90;;;;;;5057395;28;20400;-73
2023/01/13 00:36:06;;;;;;;17.30;1.55;;;9.20;99.90;;;;;;5058963;28;20025;-74
2023/01/13 00:38:34;;;;;;;13.18;0.98;;;9.20;99.90;;;;;;5061712;28;20044;-73
2023/01/13 00:41:07;;;;;;;17.00;2.20;;;9.10;99.90;;;;;;5068921;28;20024;-73
2023/01/13 00:43:35;;;;;;;18.65;2.13;;;9.10;99.90;;;;;;5068956;28;20066;-74
2023/01/13 00:46:01;;;;;;;15.93;1.42;;;9.00;99.90;;;;;;5059077;28;20032;-73
2023/01/13 00:48:28;;;;;;;19.02;1.48;;;9.00;99.90;;;;;;5062456;28;20024;-73
2023/01/13 00:50:54;;;;;;;19.33;2.17;;;9.00;99.90;;;;;;5061529;28;20484;-74
2023/01/13 00:53:20;;;;;;;15.05;1.58;;;9.00;99.90;;;;;;5063129;28;20074;-73
2023/01/13 00:55:46;;;;;;;17.00;1.85;;;8.90;99.90;;;;;;5071558;28;20053;-74
2023/01/13 00:58:11;;;;;;;14.98;1.90;;;8.90;99.90;;;;;;5062846;28;20037;-73
2023/01/13 01:00:37;;;;;;;16.08;1.50;;;8.90;99.90;;;;;;5061368;28;20105;-74
2023/01/13 01:03:06;;;;;;;26.05;2.55;;;8.80;99.90;;;;;;5062312;28;20036;-75
2023/01/13 01:05:32;;;;;;;14.52;2.08;;;8.80;99.90;;;;;;5068426;28;20032;-73
2023/01/13 01:07:58;;;;;;;22.13;1.90;;;8.80;99.90;;;;;;5072325;28;20075;-73
2023/01/13 01:10:24;;;;;;;16.77;1.73;;;8.80;99.90;;;;;;5062464;28;20257;-74
2023/01/13 01:12:49;;;;;;;18.08;2.75;;;8.80;99.90;;;;;;5072752;28;20025;-74
2023/01/13 01:15:16;;;;;;;21.42;1.92;;;8.80;99.90;;;;;;5069496;28;20511;-74
2023/01/13 01:17:41;;;;;;;21.40;2.35;;;8.80;99.90;;;;;;5067459;28;20040;-73
2023/01/13 01:20:07;;;;;;;15.50;1.48;;;8.90;99.90;;;;;;5058531;28;20028;-73
2023/01/13 01:22:33;;;;;;;23.90;2.28;;;8.90;99.90;;;;;;5068344;28;20024;-74
2023/01/13 01:24:58;;;;;;;23.27;2.35;;;9.00;99.90;;;;;;5055285;28;20040;-73
2023/01/13 01:27:24;;;;;;;16.55;1.65;;;9.00;99.90;;;;;;5055243;28;20035;-73
2023/01/13 01:29:49;;;;;;;16.52;2.13;;;9.00;99.90;;;;;;5052530;28;20033;-74
2023/01/13 01:32:15;;;;;;;23.20;2.10;;;8.90;99.90;;;;;;5069485;28;20028;-73
2023/01/13 01:34:41;;;;;;;17.48;1.80;;;8.90;99.90;;;;;;5062520;28;20126;-74
2023/01/13 01:37:06;;;;;;;14.32;1.80;;;8.90;99.90;;;;;;5058778;28;20435;-73
2023/01/13 01:39:32;;;;;;;22.10;2.45;;;8.80;99.90;;;;;;5056002;28;20107;-73
2023/01/13 01:44:41;;;;;;;18.75;2.00;;;8.80;99.90;;;;;;5069898;28;20032;-74
2023/01/13 01:47:13;;;;;;;22.13;2.40;;;8.70;99.90;;;;;;5060573;28;20324;-74
2023/01/13 01:49:40;;;;;;;13.95;1.83;;;8.70;99.90;;;;;;5057255;28;20025;-73
2023/01/13 01:52:11;;;;;;;23.05;2.20;;;8.60;99.90;;;;;;5065414;28;20048;-73
2023/01/13 01:54:49;;;;;;;21.98;2.60;;;8.60;99.90;;;;;;5055388;28;20038;-73
2023/01/13 01:57:23;;;;;;;24.15;1.67;;;8.50;99.90;;;;;;5062465;28;20063;-73
2023/01/13 01:59:49;;;;;;;23.48;2.88;;;8.60;99.90;;;;;;5061516;28;20051;-73
2023/01/13 02:02:14;;;;;;;28.20;2.25;;;8.50;99.90;;;;;;5068383;28;20115;-73
2023/01/13 02:04:49;;;;;;;27.88;1.70;;;8.40;99.90;;;;;;5064114;28;20028;-73
2023/01/13 02:07:18;;;;;;;27.60;1.70;;;8.40;99.90;;;;;;5060008;28;20116;-74
2023/01/13 02:09:44;;;;;;;28.20;3.30;;;8.40;99.90;;;;;;5058447;28;20047;-73
2023/01/13 02:12:28;;;;;;;21.73;2.05;;;8.40;99.90;;;;;;5064218;28;20041;-73
2023/01/13 02:15:20;;;;;;;13.43;1.75;;;8.30;99.90;;;;;;5071117;28;20380;-73
2023/01/13 02:18:06;;;;;;;16.88;1.67;;;8.30;99.90;;;;;;5057560;28;20053;-73
2023/01/13 02:21:05;;;;;;;27.83;3.50;;;8.40;99.90;;;;;;5059950;28;20024;-73
2023/01/13 02:27:07;;;;;;;20.92;1.58;;;8.30;99.90;;;;;;5060578;28;20113;-74
2023/01/13 02:33:30;;;;;;;23.65;1.70;;;8.30;99.90;;;;;;5050900;28;20064;-73
2023/01/13 02:36:14;;;;;;;17.63;1.83;;;8.30;99.90;;;;;;5066145;28;20097;-73
2023/01/13 02:38:51;;;;;;;21.75;1.92;;;8.30;99.90;;;;;;5060099;28;20072;-73
2023/01/13 02:44:32;;;;;;;24.65;2.75;;;8.30;99.90;;;;;;5063854;28;20075;-74
2023/01/13 02:47:05;;;;;;;22.75;2.63;;;8.30;99.90;;;;;;5060868;28;20074;-73
2023/01/13 02:49:37;;;;;;;34.55;3.72;;;8.30;99.90;;;;;;5061581;28;20442;-73
2023/01/13 02:52:16;;;;;;;26.13;2.63;;;8.30;99.90;;;;;;5058239;28;20048;-73
2023/01/13 02:54:46;;;;;;;29.83;3.22;;;8.30;99.90;;;;;;5059942;28;20037;-73
2023/01/13 02:57:15;;;;;;;30.02;2.83;;;8.30;99.90;;;;;;5059865;28;20390;-75
2023/01/13 02:59:42;;;;;;;22.80;1.73;;;8.30;99.90;;;;;;5069085;28;20031;-73
2023/01/13 03:02:12;;;;;;;19.55;1.77;;;8.30;99.90;;;;;;5061609;28;20032;-73
2023/01/13 03:04:43;;;;;;;22.65;1.90;;;8.30;99.90;;;;;;5068786;28;20138;-74
2023/01/13 03:07:28;;;;;;;22.20;2.10;;;8.30;99.90;;;;;;5053862;28;20070;-74
2023/01/13 03:10:09;;;;;;;26.50;2.95;;;8.20;99.90;;;;;;5064261;28;20032;-73
2023/01/13 03:12:53;;;;;;;30.45;2.03;;;8.30;99.90;;;;;;5063979;28;20150;-73
2023/01/13 03:15:39;;;;;;;19.75;1.83;;;8.30;99.90;;;;;;5056959;28;20079;-74
2023/01/13 03:18:13;;;;;;;29.08;2.20;;;8.30;99.90;;;;;;5050526;28;20558;-74
2023/01/13 03:20:47;;;;;;;19.00;1.88;;;8.40;99.90;;;;;;5070538;28;20023;-74
2023/01/13 03:23:32;;;;;;;20.67;2.22;;;8.40;99.90;;;;;;5063264;28;20025;-74
2023/01/13 03:26:11;;;;;;;17.92;1.98;;;8.40;99.90;;;;;;5055164;28;20030;-73
2023/01/13 03:28:43;;;;;;;16.13;1.65;;;8.40;99.90;;;;;;5058863;28;20058;-73
2023/01/13 03:31:15;;;;;;;30.33;2.97;;;8.50;99.90;;;;;;5058170;28;20052;-73
2023/01/13 03:33:54;;;;;;;23.60;2.40;;;8.50;99.90;;;;;;5067315;28;20033;-74
2023/01/13 03:36:24;;;;;;;21.85;1.92;;;8.50;99.90;;;;;;5063586;28;20040;-74
2023/01/13 03:38:54;;;;;;;29.90;3.67;;;8.50;99.90;;;;;;5068058;28;20115;-74
2023/01/13 03:41:26;;;;;;;30.42;2.20;;;8.50;99.90;;;;;;5073085;28;20017;-73
2023/01/13 03:46:52;;;;;;;28.20;1.75;;;8.50;99.90;;;;;;5067569;28;20125;-74
2023/01/13 03:49:24;;;;;;;22.80;2.50;;;8.50;99.90;;;;;;5076906;28;20045;-73
2023/01/13 03:51:57;;;;;;;21.77;2.47;;;8.50;99.90;;;;;;5076389;28;20118;-74
2023/01/13 03:54:26;;;;;;;20.58;2.63;;;8.50;99.90;;;;;;5067648;28;20017;-74
2023/01/13 03:56:58;;;;;;;24.25;2.28;;;8.50;99.90;;;;;;5069841;28;20033;-73
2023/01/13 03:59:29;;;;;;;16.65;0.80;;;8.50;99.90;;;;;;5058331;28;20387;-74
2023/01/13 04:01:57;;;;;;;15.48;1.05;;;8.50;99.90;;;;;;5067439;28;20036;-73
2023/01/13 04:04:32;;;;;;;13.48;0.90;;;8.40;99.90;;;;;;5065326;28;20028;-74
2023/01/13 04:07:03;;;;;;;16.48;1.05;;;8.40;99.90;;;;;;5065234;28;20104;-73
2023/01/13 04:09:43;;;;;;;15.27;1.25;;;8.40;99.90;;;;;;5061819;28;20377;-74
2023/01/13 04:15:19;;;;;;;12.88;1.00;;;8.40;99.90;;;;;;5070076;28;20041;-73
2023/01/13 04:17:45;;;;;;;14.35;1.00;;;8.50;99.90;;;;;;5068131;28;20096;-74
2023/01/13 04:20:11;;;;;;;7.00;0.70;;;8.50;99.90;;;;;;5065838;28;20040;-74
2023/01/13 04:22:36;;;;;;;8.65;0.70;;;8.50;99.90;;;;;;5063404;28;20404;-73
2023/01/13 04:25:02;;;;;;;8.18;0.85;;;8.50;99.90;;;;;;5063401;28;20020;-73
2023/01/13 04:27:28;;;;;;;9.32;1.10;;;8.60;99.90;;;;;;5069816;28;20028;-73
2023/01/13 04:29:53;;;;;;;7.10;0.80;;;8.50;99.90;;;;;;5067403;28;20522;-74
2023/01/13 04:32:19;;;;;;;8.60;0.60;;;8.50;99.90;;;;;;5069668;28;20028;-73
2023/01/13 04:34:44;;;;;;;11.00;0.80;;;8.50;99.90;;;;;;5072515;28;20062;-74
2023/01/13 04:37:10;;;;;;;7.68;0.70;;;8.50;99.90;;;;;;5067042;28;20041;-73
2023/01/13 04:39:36;;;;;;;7.57;0.60;;;8.40;99.90;;;;;;5060420;28;20039;-73
2023/01/13 04:42:01;;;;;;;4.72;0.45;;;8.40;99.90;;;;;;5067346;28;20035;-73
2023/01/13 04:44:29;;;;;;;8.98;0.70;;;8.40;99.90;;;;;;5067334;28;20032;-73
2023/01/13 04:46:56;;;;;;;8.75;0.40;;;8.40;99.90;;;;;;5068048;28;20508;-73
2023/01/13 04:49:21;;;;;;;10.38;0.65;;;8.40;99.90;;;;;;5061502;28;20542;-74
2023/01/13 04:51:47;;;;;;;5.63;0.47;;;8.30;99.90;;;;;;5061747;28;20032;-73
2023/01/13 04:54:12;;;;;;;5.93;0.68;;;8.40;99.90;;;;;;5067815;28;20447;-73
2023/01/13 04:56:38;;;;;;;7.13;0.40;;;8.50;99.90;;;;;;5065553;28;20036;-73
2023/01/13 04:59:03;;;;;;;4.95;0.60;;;8.50;99.90;;;;;;5063218;28;20067;-73
2023/01/13 05:01:29;;;;;;;5.10;0.45;;;8.50;99.90;;;;;;5061114;28;20021;-73
2023/01/13 05:03:54;;;;;;;6.75;0.57;;;8.50;99.90;;;;;;5063864;28;20044;-73
2023/01/13 05:06:20;;;;;;;6.82;0.50;;;8.50;99.90;;;;;;5054672;28;20035;-73
2023/01/13 05:08:46;;;;;;;9.60;0.80;;;8.50;99.90;;;;;;5055114;28;20025;-73
2023/01/13 05:19:23;;;;;;;6.15;0.43;;;8.50;99.90;;;;;;5056949;28;20055;-74
2023/01/13 05:27:17;;;;;;;9.15;0.63;;;8.50;99.90;;;;;;5058508;28;20515;-73
2023/01/13 05:29:42;;;;;;;10.93;0.57;;;8.50;99.90;;;;;;5056075;28;20115;-73
2023/01/13 05:32:08;;;;;;;7.15;0.65;;;8.50;99.90;;;;;;5063323;28;20055;-74
2023/01/13 05:34:33;;;;;;;8.07;0.75;;;8.50;99.90;;;;;;5065971;28;20411;-73
2023/01/13 05:36:59;;;;;;;7.90;1.20;;;8.40;99.90;;;;;;5067678;28;20159;-73
2023/01/13 05:39:26;;;;;;;13.85;0.77;;;8.40;99.90;;;;;;5066869;28;20025;-73
2023/01/13 05:44:36;;;;;;;9.95;0.93;;;8.30;99.90;;;;;;5058787;28;20047;-73
2023/01/13 05:47:01;;;;;;;7.75;1.02;;;8.40;99.90;;;;;;5063691;28;20028;-73
2023/01/13 05:49:27;;;;;;;8.15;0.90;;;8.40;99.90;;;;;;5068791;28;20025;-74
2023/01/13 05:51:52;;;;;;;12.73;0.90;;;8.40;99.90;;;;;;5062054;28;20032;-73
2023/01/13 05:54:18;;;;;;;12.82;0.88;;;8.30;99.90;;;;;;5068161;28;20048;-73
2023/01/13 05:56:43;;;;;;;12.32;1.00;;;8.40;99.90;;;;;;5054250;28;20032;-73
2023/01/13 05:59:09;;;;;;;13.40;0.93;;;8.30;99.90;;;;;;5066160;28;20395;-73
2023/01/13 06:01:35;;;;;;;7.10;0.80;;;8.30;99.90;;;;;;5061466;28;20484;-73
2023/01/13 06:04:01;;;;;;;14.13;0.90;;;8.30;99.90;;;;;;5053338;28;20120;-73
2023/01/13 06:06:27;;;;;;;14.32;1.42;;;8.20;99.90;;;;;;5052059;28;20112;-73
2023/01/13 06:08:52;;;;;;;15.05;1.20;;;8.20;99.90;;;;;;5063266;28;20419;-73
2023/01/13 06:11:18;;;;;;;14.02;1.08;;;8.20;99.90;;;;;;5062473;28;20020;-73
2023/01/13 06:13:43;;;;;;;13.18;1.90;;;8.20;99.90;;;;;;5067647;28;20024;-73
2023/01/13 06:16:09;;;;;;;11.30;0.80;;;8.20;99.90;;;;;;5057932;28;20039;-73
2023/01/13 06:18:35;;;;;;;14.52;0.82;;;8.10;99.90;;;;;;5067338;28;20094;-73
2023/01/13 06:21:00;;;;;;;22.38;1.30;;;8.10;99.90;;;;;;5066185;28;20031;-73
2023/01/13 06:23:26;;;;;;;13.07;1.17;;;8.10;99.90;;;;;;5086054;28;20032;-73
2023/01/13 06:26:21;;;;;;;9.55;0.93;;;8.00;99.90;;;;;;5063036;28;20302;-73
2023/01/13 06:28:48;;;;;;;11.63;1.20;;;8.00;99.90;;;;;;5054377;28;20429;-73
2023/01/13 06:31:14;;;;;;;12.48;1.42;;;8.00;99.90;;;;;;5052298;28;20091;-73
2023/01/13 06:33:51;;;;;;;18.20;1.48;;;8.00;99.90;;;;;;5056911;28;20036;-73
2023/01/13 06:36:22;;;;;;;17.20;1.77;;;7.90;99.90;;;;;;5064567;28;20052;-73
2023/01/13 06:38:51;;;;;;;12.57;1.55;;;7.90;99.90;;;;;;5060285;28;20032;-73
2023/01/13 06:43:13;;;;;;;10.45;0.90;;;7.90;99.90;;;;;;5055329;28;20020;-73
2023/01/13 06:44:04;;;;;;;18.88;1.35;;;7.90;99.90;;;;;;5057731;28;20055;-73
2023/01/13 06:46:30;;;;;;;9.63;0.88;;;7.90;99.90;;;;;;5058225;28;20021;-73
2023/01/13 06:48:55;;;;;;;12.73;0.77;;;8.00;99.90;;;;;;5076971;28;20032;-73
2023/01/13 06:51:21;;;;;;;9.32;0.80;;;8.00;99.90;;;;;;5052504;28;20112;-74
2023/01/13 06:53:46;;;;;;;15.65;1.55;;;8.00;99.90;;;;;;5054867;28;20028;-73
2023/01/13 06:56:12;;;;;;;18.60;1.67;;;8.10;99.90;;;;;;5057624;28;20016;-73
2023/01/13 06:58:37;;;;;;;19.77;1.95;;;8.10;99.90;;;;;;5062691;28;20488;-73
2023/01/13 07:01:03;;;;;;;16.40;1.73;;;8.20;99.90;;;;;;5056855;28;20427;-73
2023/01/13 07:03:28;;;;;;;14.52;2.33;;;8.10;99.90;;;;;;5050482;28;20021;-75
2023/01/13 07:05:55;;;;;;;13.65;0.90;;;8.10;99.90;;;;;;5065442;28;20047;-72
2023/01/13 07:08:22;;;;;;;21.17;1.48;;;8.00;99.90;;;;;;5048696;28;20036;-74
2023/01/13 07:10:47;;;;;;;13.13;1.50;;;8.00;99.90;;;;;;5058336;28;20029;-73
2023/01/13 07:16:03;;;;;;;14.07;0.90;;;7.90;99.90;;;;;;5064677;28;20023;-73
2023/01/13 07:18:31;;;;;;;19.35;1.25;;;7.90;99.90;;;;;;5052639;28;20036;-73
2023/01/13 07:20:59;;;;;;;13.75;1.65;;;7.90;99.90;;;;;;5056749;28;20036;-72
2023/01/13 07:23:27;;;;;;;12.10;1.63;;;7.80;99.90;;;;;;5056664;28;20025;-73
2023/01/13 07:25:56;;;;;;;11.85;1.65;;;7.80;99.90;;;;;;5065780;28;20383;-74
2023/01/13 07:28:25;;;;;;;14.65;1.17;;;7.80;99.90;;;;;;5054982;28;20086;-73
2023/01/13 07:30:51;;;;;;;14.82;2.05;;;7.80;99.90;;;;;;5068896;28;20423;-73
2023/01/13 07:33:17;;;;;;;19.85;1.95;;;7.80;99.90;;;;;;5059376;28;20055;-72
2023/01/13 07:35:44;;;;;;;14.82;1.83;;;7.80;99.90;;;;;;5063138;28;20033;-73
2023/01/13 07:38:10;;;;;;;15.82;1.17;;;7.80;99.90;;;;;;5060318;28;20075;-73
2023/01/13 07:40:35;;;;;;;24.98;2.53;;;7.80;99.90;;;;;;5061735;28;20431;-73
2023/01/13 07:45:45;;;;;;;17.45;2.03;;;7.80;99.90;;;;;;5063315;28;20446;-72
2023/01/13 07:48:10;;;;;;;15.38;1.55;;;7.90;99.90;;;;;;5066371;28;20029;-73
2023/01/13 07:50:36;;;;;;;18.23;1.52;;;7.90;99.90;;;;;;5063842;28;20025;-73
2023/01/13 07:53:02;;;;;;;12.60;1.20;;;7.90;99.90;;;;;;5063931;28;20085;-73
2023/01/13 07:55:28;;;;;;;12.15;1.15;;;7.80;99.90;;;;;;5059450;28;20477;-74
2023/01/13 07:57:53;;;;;;;17.20;1.88;;;7.80;99.90;;;;;;5055755;28;20041;-73
2023/01/13 08:00:20;;;;;;;14.80;1.48;;;7.80;99.90;;;;;;5052394;28;20111;-73
2023/01/13 08:02:45;;;;;;;16.17;1.73;;;7.80;99.90;;;;;;5057945;28;20520;-72
2023/01/13 08:05:11;;;;;;;18.42;1.67;;;7.80;99.90;;;;;;5051003;28;20021;-72
2023/01/13 08:07:36;;;;;;;17.25;2.85;;;7.80;99.90;;;;;;5052040;28;20039;-73
2023/01/13 08:10:03;;;;;;;12.30;0.85;;;7.80;99.90;;;;;;5055327;28;20035;-72
2023/01/13 08:15:31;;;;;;;12.95;1.40;;;7.90;99.90;;;;;;5006392;28;20509;-73
2023/01/13 08:17:58;;;;;;;16.50;1.95;;;8.00;99.90;;;;;;5041910;28;20095;-73
2023/01/13 08:20:24;;;;;;;18.95;1.55;;;8.10;99.90;;;;;;5062521;28;20021;-73
2023/01/13 08:22:49;;;;;;;19.45;1.30;;;8.10;99.90;;;;;;5053944;28;20433;-73
2023/01/13 08:25:16;;;;;;;19.13;2.60;;;8.20;99.90;;;;;;5066431;28;20027;-73
2023/01/13 08:27:41;;;;;;;17.27;1.50;;;8.30;99.90;;;;;;5064576;28;20023;-73
2023/01/13 08:30:08;;;;;;;23.88;2.15;;;8.40;99.90;;;;;;5059393;28;20385;-73
2023/01/13 08:32:33;;;;;;;14.20;1.20;;;8.40;99.90;;;;;;5065736;28;20033;-73
2023/01/13 08:34:59;;;;;;;14.35;1.60;;;8.40;99.90;;;;;;5067925;28;20028;-73
2023/01/13 08:37:24;;;;;;;18.70;1.73;;;8.50;99.90;;;;;;5057111;28;20052;-73
2023/01/13 08:39:50;;;;;;;18.15;1.20;;;8.50;99.90;;;;;;5065850;28;20376;-73
2023/01/13 08:42:16;;;;;;;22.10;1.85;;;8.60;99.90;;;;;;5074146;28;20040;-73
2023/01/13 08:44:41;;;;;;;11.40;1.00;;;8.60;99.90;;;;;;5061016;28;20401;-73
2023/01/13 08:47:07;;;;;;;20.20;1.20;;;8.60;99.90;;;;;;5066096;28;20042;-73
2023/01/13 08:49:32;;;;;;;17.95;1.27;;;8.60;99.90;;;;;;5064470;28;20096;-73
2023/01/13 08:51:58;;;;;;;26.55;2.03;;;8.60;99.90;;;;;;5066263;28;20028;-73
2023/01/13 08:54:23;;;;;;;14.05;1.20;;;8.70;99.90;;;;;;5063781;28;20139;-73
2023/01/13 08:56:49;;;;;;;12.48;1.13;;;8.70;99.90;;;;;;5060635;28;20484;-73
2023/01/13 08:59:17;;;;;;;16.45;1.45;;;8.70;99.90;;;;;;5060196;28;20036;-73
2023/01/13 09:01:44;;;;;;;17.73;1.08;;;8.80;99.90;;;;;;5067871;28;20399;-73
2023/01/13 09:04:18;;;;;;;13.88;1.27;;;8.80;99.90;;;;;;5072365;28;20029;-73
2023/01/13 09:06:44;;;;;;;16.02;1.63;;;8.90;99.90;;;;;;5063024;28;20384;-73
2023/01/13 09:09:10;;;;;;;17.50;1.73;;;8.80;99.90;;;;;;5067614;28;20028;-73
2023/01/13 09:14:25;;;;;;;17.58;1.75;;;8.90;99.90;;;;;;5061792;28;20035;-73
2023/01/13 09:16:50;;;;;;;24.55;1.92;;;8.90;99.90;;;;;;5060697;28;20043;-73
2023/01/13 09:19:16;;;;;;;17.85;1.52;;;9.00;99.90;;;;;;5062022;28;20037;-73
2023/01/13 09:21:41;;;;;;;23.77;1.88;;;9.00;99.90;;;;;;5069172;28;20081;-73
2023/01/13 09:24:07;;;;;;;15.90;1.50;;;9.00;99.90;;;;;;5066951;28;20161;-73
2023/01/13 09:26:33;;;;;;;17.85;2.28;;;9.00;99.90;;;;;;5062997;28;20020;-73
2023/01/13 09:28:59;;;;;;;14.43;2.47;;;9.00;99.90;;;;;;5063600;28;20044;-73
2023/01/13 09:31:24;;;;;;;16.92;1.10;;;9.00;99.90;;;;;;5066322;28;20027;-73
2023/01/13 09:36:34;;;;;;;18.80;2.25;;;9.00;99.90;;;;;;5054440;28;20040;-73
2023/01/13 09:39:00;;;;;;;17.05;2.13;;;9.00;99.90;;;;;;5065263;28;20422;-73
2023/01/13 09:44:18;;;;;;;19.92;1.52;;;9.00;99.90;;;;;;5057759;28;20063;-73
2023/01/13 09:46:55;;;;;;;22.42;1.98;;;9.00;99.90;;;;;;5071059;28;20031;-73
2023/01/13 09:49:22;;;;;;;20.48;2.42;;;8.90;99.90;;;;;;5055643;28;20469;-74
2023/01/13 09:52:02;;;;;;;21.08;2.17;;;8.90;99.90;;;;;;5062983;28;20053;-73
2023/01/13 09:54:42;;;;;;;24.60;2.08;;;8.80;99.90;;;;;;5066757;28;20021;-73
2023/01/13 09:57:14;;;;;;;18.90;1.85;;;8.80;99.90;;;;;;5060521;28;20116;-73
2023/01/13 09:59:39;;;;;;;18.77;1.75;;;8.80;99.90;;;;;;5070494;28;20505;-73
2023/01/13 10:02:25;;;;;;;21.00;1.85;;;8.80;99.90;;;;;;5065123;28;20066;-73
2023/01/13 10:05:12;;;;;;;21.40;2.53;;;8.70;99.90;;;;;;5056255;28;20029;-73
2023/01/13 10:07:51;;;;;;;22.05;3.13;;;8.70;99.90;;;;;;5054671;28;20953;-73
2023/01/13 10:10:35;;;;;;;24.88;2.50;;;8.60;99.90;;;;;;5067576;28;20481;-73
2023/01/13 10:13:15;;;;;;;18.73;1.92;;;8.50;99.90;;;;;;5058874;28;20044;-73
2023/01/13 10:16:13;;;;;;;13.23;1.60;;;8.40;99.90;;;;;;5066732;28;20047;-73
2023/01/13 10:19:04;;;;;;;16.13;1.88;;;8.40;99.90;;;;;;5054737;28;20029;-73
2023/01/13 10:21:54;;;;;;;16.17;1.85;;;8.30;99.90;;;;;;5059598;28;20381;-73
2023/01/13 10:24:59;;;;;;;24.77;1.90;;;8.30;99.90;;;;;;5058412;28;20063;-73
2023/01/13 10:27:34;;;;;;;19.08;1.92;;;8.20;99.90;;;;;;5059474;28;20028;-73
2023/01/13 10:30:30;;;;;;;13.60;1.30;;;8.10;99.90;;;;;;5062911;28;20024;-74
2023/01/13 10:33:24;;;;;;;14.98;1.58;;;8.00;99.90;;;;;;5061895;28;20033;-73
2023/01/13 10:36:01;;;;;;;17.50;2.20;;;8.00;99.90;;;;;;5060881;28;20557;-73
2023/01/13 10:38:29;;;;;;;9.43;0.95;;;8.00;99.90;;;;;;5055488;28;20040;-73
2023/01/13 10:40:57;;;;;;;20.98;1.40;;;8.00;99.90;;;;;;5060078;28;20036;-73
2023/01/13 10:43:24;;;;;;;17.45;1.55;;;8.00;99.90;;;;;;5053804;28;20131;-73
2023/01/13 10:45:58;;;;;;;22.40;2.28;;;8.10;99.90;;;;;;5064679;28;20097;-73
2023/01/13 10:48:32;;;;;;;18.13;1.48;;;8.10;99.90;;;;;;5058852;28;20025;-73
2023/01/13 10:51:29;;;;;;;19.75;2.55;;;8.10;99.90;;;;;;5062907;28;20021;-73
2023/01/13 10:54:18;;;;;;;23.98;1.77;;;8.10;99.90;;;;;;5057203;28;20042;-73
2023/01/13 10:56:44;;;;;;;22.00;2.60;;;8.20;99.90;;;;;;5051848;28;20028;-73
2023/01/13 10:59:27;;;;;;;19.02;1.45;;;8.20;99.90;;;;;;5058838;28;20107;-73
2023/01/13 11:02:08;;;;;;;15.80;1.73;;;8.20;99.90;;;;;;5059220;28;20028;-74
2023/01/13 11:04:37;;;;;;;23.77;1.98;;;8.20;99.90;;;;;;5052796;28;20048;-73
2023/01/13 11:07:17;;;;;;;14.85;1.15;;;8.30;99.90;;;;;;5065689;28;20100;-73
2023/01/13 11:09:42;;;;;;;8.18;1.20;;;8.30;99.90;;;;;;5066406;28;20020;-73
2023/01/13 11:12:32;;;;;;;16.75;1.60;;;8.30;99.90;;;;;;5057023;28;20048;-73
2023/01/13 11:15:01;;;;;;;20.73;1.38;;;8.40;99.90;;;;;;5053604;28;20020;-73
2023/01/13 11:17:44;;;;;;;24.00;1.75;;;8.40;99.90;;;;;;5056584;28;20559;-74
2023/01/13 11:20:49;;;;;;;28.35;2.70;;;8.40;99.90;;;;;;5062643;28;20021;-74
2023/01/13 11:23:29;;;;;;;20.10;1.38;;;8.30;99.90;;;;;;5020472;28;20042;-73
2023/01/13 11:26:03;;;;;;;18.00;1.38;;;8.30;99.90;;;;;;5022963;28;20026;-74
2023/01/13 11:28:37;;;;;;;21.42;1.48;;;8.30;99.90;;;;;;5049534;28;20037;-74
2023/01/13 11:31:23;;;;;;;13.18;1.17;;;8.40;99.90;;;;;;5057836;28;20040;-73
2023/01/13 11:34:16;;;;;;;23.88;2.40;;;8.40;99.90;;;;;;5069688;28;20064;-73
2023/01/13 11:36:54;;;;;;;19.05;1.88;;;8.50;99.90;;;;;;5059738;28;20029;-73
2023/01/13 11:39:28;;;;;;;20.42;1.55;;;8.50;99.90;;;;;;5057749;28;20029;-74
2023/01/13 11:42:19;;;;;;;18.75;1.85;;;8.60;99.90;;;;;;5051604;28;20027;-73
2023/01/13 11:44:54;;;;;;;19.50;2.28;;;8.60;99.90;;;;;;5061837;28;20128;-74
2023/01/13 11:47:23;;;;;;;18.58;2.35;;;8.70;99.90;;;;;;5058200;28;20025;-74
2023/01/13 11:49:48;;;;;;;22.95;2.08;;;8.80;99.90;;;;;;5055515;28;20440;-74
2023/01/13 11:52:26;;;;;;;17.42;1.45;;;8.80;99.90;;;;;;5055871;28;20021;-74
2023/01/13 11:55:26;;;;;;;11.60;0.82;;;8.80;99.90;;;;;;5062023;28;20044;-74
2023/01/13 11:58:05;;;;;;;16.42;1.55;;;8.80;99.90;;;;;;5037206;28;20349;-74
2023/01/13 12:00:56;;;;;;;13.38;1.15;;;8.70;99.90;;;;;;5060054;28;20040;-73
2023/01/13 12:03:38;;;;;;;18.02;2.53;;;8.70;99.90;;;;;;5056810;28;20112;-74
2023/01/13 12:06:04;;;;;;;;;;;8.70;99.90;;;;;;5063520;28;20028;-73
2023/01/13 12:08:53;;;;;;;17.13;1.95;;;8.70;99.90;;;;;;5063917;28;19909;-74
2023/01/13 12:15:05;;;;;;;18.17;1.65;;;8.70;99.90;;;;;;5059302;28;20073;-73
2023/01/13 12:17:56;;;;;;;16.73;2.28;;;8.70;99.90;;;;;;5058726;28;20185;-73
2023/01/13 12:20:33;;;;;;;17.42;1.42;;;8.70;99.90;;;;;;5069268;28;20020;-74
2023/01/13 12:23:03;;;;;;;20.38;1.88;;;8.70;99.90;;;;;;5066092;28;20021;-73
2023/01/13 12:25:36;;;;;;;22.20;1.90;;;8.70;99.90;;;;;;5052622;28;20014;-74
2023/01/13 12:28:15;;;;;;;17.27;1.55;;;8.70;99.90;;;;;;5058811;28;20037;-74
2023/01/13 12:31:00;;;;;;;20.30;1.33;;;8.80;99.90;;;;;;5061037;28;20108;-74
2023/01/13 12:33:49;;;;;;;24.05;1.75;;;8.80;99.90;;;;;;5058963;28;20071;-74
2023/01/13 12:36:32;;;;;;;16.13;1.38;;;8.90;99.90;;;;;;5069085;28;20048;-74
2023/01/13 12:39:14;;;;;;;18.75;1.25;;;8.90;99.90;;;;;;5056103;28;20063;-73
2023/01/13 12:45:19;;;;;;;17.80;2.05;;;9.00;99.90;;;;;;5060055;28;20128;-72
2023/01/13 12:47:45;;;;;;;18.63;1.20;;;9.10;99.90;;;;;;5064764;28;20028;-73
2023/01/13 12:50:23;;;;;;;19.55;1.10;;;9.10;99.90;;;;;;5060941;28;20416;-73
2023/01/13 12:52:53;;;;;;;19.95;1.85;;;9.10;99.90;;;;;;5060134;28;20039;-72
2023/01/13 12:55:31;;;;;;;14.07;1.08;;;9.00;99.90;;;;;;5054433;28;20029;-73
2023/01/13 12:58:08;;;;;;;18.00;1.45;;;8.80;99.90;;;;;;5060576;28;20033;-73
2023/01/13 13:00:52;;;;;;;16.73;2.08;;;8.60;99.90;;;;;;5066405;28;20024;-72
2023/01/13 13:03:28;;;;;;;13.00;1.25;;;8.60;99.90;;;;;;5068381;28;20086;-72
2023/01/13 13:06:02;;;;;;;18.10;1.45;;;8.70;99.90;;;;;;5056036;28;20384;-73
2023/01/13 13:08:39;;;;;;;18.80;1.45;;;8.80;99.90;;;;;;5049208;28;20028;-72
2023/01/13 13:13:16;;;;;;;16.52;1.08;;;9.00;99.90;;;;;;5069281;28;20078;-72
2023/01/13 13:14:11;;;;;;;16.35;1.52;;;9.00;99.90;;;;;;5064623;28;20052;-72
2023/01/13 13:16:50;;;;;;;15.68;1.05;;;9.00;99.90;;;;;;5064209;28;20400;-72
2023/01/13 13:19:19;;;;;;;11.23;0.95;;;9.00;99.90;;;;;;5056696;28;20020;-72
2023/01/13 13:22:12;;;;;;;19.85;1.45;;;9.00;99.90;;;;;;5057910;28;20092;-72
2023/01/13 13:24:39;;;;;;;24.33;1.95;;;9.10;99.90;;;;;;5059828;28;20036;-74
2023/01/13 13:27:31;;;;;;;23.48;1.60;;;9.00;99.90;;;;;;5063140;28;20032;-73
2023/01/13 13:30:03;;;;;;;10.82;1.00;;;9.00;99.90;;;;;;5056517;28;20056;-72
2023/01/13 13:32:50;;;;;;;19.40;2.33;;;9.00;99.90;;;;;;5060884;28;20078;-72
2023/01/13 13:35:39;;;;;;;15.15;1.15;;;9.10;99.90;;;;;;5066509;28;20452;-72
2023/01/13 13:47:05;;;;;;;11.77;1.30;;;9.10;99.90;;;;;;5057099;28;20040;-73
2023/01/13 13:49:40;;;;;;;11.68;1.30;;;9.20;99.90;;;;;;5063263;28;20035;-73
2023/01/13 13:52:20;;;;;;;20.42;3.28;;;9.20;99.90;;;;;;5060697;28;20032;-72
2023/01/13 13:54:50;;;;;;;20.08;1.67;;;9.20;99.90;;;;;;5065767;28;20074;-73
2023/01/13 13:57:44;;;;;;;14.02;1.77;;;9.30;99.90;;;;;;5061154;28;20040;-73
2023/01/13 14:00:18;;;;;;;14.82;1.40;;;9.20;99.90;;;;;;5053918;28;20098;-72
2023/01/13 14:02:50;;;;;;;14.32;1.27;;;9.20;99.90;;;;;;5064155;28;20028;-72
2023/01/13 14:05:22;;;;;;;14.83;1.57;;;9.20;99.90;;;;;;5056663;28;20031;-72
2023/01/13 14:07:57;;;;;;;17.17;1.13;;;9.20;99.90;;;;;;5074132;28;20275;-73
2023/01/13 14:10:32;;;;;;;11.68;1.15;;;9.20;99.90;;;;;;5061808;28;20028;-72
2023/01/13 14:12:59;;;;;;;15.57;1.70;;;9.20;99.90;;;;;;5062636;28;20106;-73
2023/01/13 14:15:37;;;;;;;16.50;1.38;;;9.20;99.90;;;;;;5068709;28;20111;-73
2023/01/13 14:18:09;;;;;;;12.75;1.63;;;9.20;99.90;;;;;;5065460;28;20040;-73
2023/01/13 14:20:35;;;;;;;12.18;0.98;;;9.10;99.90;;;;;;5071745;28;20024;-72